RYR33XW LIMF-LIBD
Flight info
| Callsign | RYR33XW |
|---|---|
| Flight time | 1h 19m |
| Altitude | 35000 |
| Route | TESTO DCT GEN DCT BEROK DCT RUXOL DCT LOMED DCT NUKNI DCT RUPAX DCT ALJUB DCT EKKEF DCT PERAV |
| Aircraft | B738/M-SDE2E3FGHIRWXY/LB1 |
Departure
| Time | 2026-04-30 18:10 |
|---|---|
| Airport | Turin Airport (LIMF) |
Arrival
| Time | 2026-04-30 19:29 |
|---|---|
| Airport | Bari Karol Wojtyła International Airport (LIBD) |
| Time | Latitude | Longitude | Altitude | Speed | Heading |
|---|---|---|---|---|---|
| 2026-04-30 18:01 | 45.19436 | 7.64525 | 960 ft | 0 kts | 181° |
| 2026-04-30 18:03 | 45.19384 | 7.64535 | 958 ft | 11 kts | 146° |
| 2026-04-30 18:04 | 45.19179 | 7.64662 | 953 ft | 14 kts | 183° |
| 2026-04-30 18:05 | 45.18743 | 7.64633 | 944 ft | 12 kts | 183° |
| 2026-04-30 18:06 | 45.18686 | 7.64634 | 943 ft | 0 kts | 167° |
| 2026-04-30 18:07 | 45.18664 | 7.64641 | 943 ft | 1 kts | 165° |
| 2026-04-30 18:08 | 45.18618 | 7.64769 | 941 ft | 19 kts | 85° |
| 2026-04-30 18:09 | 45.19403 | 7.64916 | 956 ft | 110 kts | 2° |
| 2026-04-30 18:10 | 45.23797 | 7.65366 | 2491 ft | 176 kts | 7° |
| 2026-04-30 18:11 | 45.28021 | 7.68783 | 4604 ft | 223 kts | 95° |
| 2026-04-30 18:11 | 45.26217 | 7.75331 | 5952 ft | 260 kts | 110° |
| 2026-04-30 18:12 | 45.23956 | 7.82655 | 7793 ft | 279 kts | 123° |
| 2026-04-30 18:13 | 45.21618 | 7.87131 | 9168 ft | 287 kts | 125° |
| 2026-04-30 18:13 | 45.18471 | 7.93232 | 10831 ft | 305 kts | 123° |
| 2026-04-30 18:14 | 45.15113 | 7.98877 | 11704 ft | 345 kts | 143° |
| 2026-04-30 18:15 | 45.07901 | 8.01904 | 13563 ft | 372 kts | 167° |
| 2026-04-30 18:15 | 45.00166 | 8.04206 | 15790 ft | 386 kts | 166° |
| 2026-04-30 18:16 | 44.94877 | 8.05876 | 17229 ft | 394 kts | 166° |
| 2026-04-30 18:16 | 44.89527 | 8.07588 | 18581 ft | 402 kts | 166° |
| 2026-04-30 18:17 | 44.86783 | 8.08594 | 19243 ft | 405 kts | 160° |
| 2026-04-30 18:17 | 44.84234 | 8.10137 | 19887 ft | 406 kts | 149° |
| 2026-04-30 18:17 | 44.79832 | 8.15118 | 21106 ft | 408 kts | 128° |
| 2026-04-30 18:18 | 44.78176 | 8.18356 | 21688 ft | 409 kts | 117° |
| 2026-04-30 18:18 | 44.76859 | 8.21903 | 22282 ft | 410 kts | 112° |
| 2026-04-30 18:18 | 44.75682 | 8.25521 | 22820 ft | 414 kts | 111° |
| 2026-04-30 18:18 | 44.74477 | 8.29221 | 23364 ft | 418 kts | 111° |
| 2026-04-30 18:19 | 44.73215 | 8.32898 | 23934 ft | 422 kts | 113° |
| 2026-04-30 18:19 | 44.71869 | 8.36599 | 24434 ft | 427 kts | 114° |
| 2026-04-30 18:19 | 44.70452 | 8.40305 | 24974 ft | 430 kts | 115° |
| 2026-04-30 18:19 | 44.68999 | 8.43979 | 25499 ft | 434 kts | 116° |
| 2026-04-30 18:20 | 44.67499 | 8.47692 | 25987 ft | 438 kts | 116° |
| 2026-04-30 18:20 | 44.65986 | 8.51393 | 26495 ft | 441 kts | 116° |
| 2026-04-30 18:20 | 44.64459 | 8.55101 | 26956 ft | 445 kts | 116° |
| 2026-04-30 18:20 | 44.62894 | 8.58888 | 27493 ft | 447 kts | 116° |
| 2026-04-30 18:21 | 44.61329 | 8.62664 | 27897 ft | 452 kts | 116° |
| 2026-04-30 18:21 | 44.59757 | 8.66454 | 28300 ft | 456 kts | 117° |
| 2026-04-30 18:21 | 44.58139 | 8.70356 | 28723 ft | 460 kts | 117° |
| 2026-04-30 18:21 | 44.56538 | 8.74226 | 29347 ft | 458 kts | 117° |
| 2026-04-30 18:22 | 44.54967 | 8.78026 | 30043 ft | 455 kts | 117° |
| 2026-04-30 18:22 | 44.51809 | 8.85654 | 31093 ft | 454 kts | 117° |
| 2026-04-30 18:22 | 44.50215 | 8.89501 | 31571 ft | 454 kts | 117° |
| 2026-04-30 18:23 | 44.48628 | 8.93326 | 31994 ft | 454 kts | 117° |
| 2026-04-30 18:23 | 44.47056 | 8.97110 | 32415 ft | 454 kts | 117° |
| 2026-04-30 18:23 | 44.45467 | 9.00928 | 32906 ft | 452 kts | 117° |
| 2026-04-30 18:23 | 44.43905 | 9.04796 | 33223 ft | 453 kts | 114° |
| 2026-04-30 18:24 | 44.41443 | 9.12946 | 33930 ft | 450 kts | 104° |
| 2026-04-30 18:24 | 44.40509 | 9.17110 | 34397 ft | 446 kts | 102° |
| 2026-04-30 18:24 | 44.39663 | 9.21276 | 34700 ft | 446 kts | 101° |
| 2026-04-30 18:25 | 44.38847 | 9.25498 | 34930 ft | 448 kts | 101° |
| 2026-04-30 18:25 | 44.37233 | 9.33964 | 35213 ft | 452 kts | 101° |
| 2026-04-30 18:25 | 44.36421 | 9.38164 | 35225 ft | 448 kts | 101° |
| 2026-04-30 18:26 | 44.35221 | 9.46591 | 35217 ft | 436 kts | 82° |
| 2026-04-30 18:26 | 44.35673 | 9.50756 | 35235 ft | 431 kts | 71° |
| 2026-04-30 18:27 | 44.37413 | 9.62677 | 35224 ft | 432 kts | 78° |
| 2026-04-30 18:28 | 44.37161 | 9.75404 | 35204 ft | 445 kts | 95° |
| 2026-04-30 18:28 | 44.35067 | 9.88036 | 35203 ft | 448 kts | 101° |
| 2026-04-30 18:29 | 44.31602 | 10.04784 | 35216 ft | 449 kts | 102° |
| 2026-04-30 18:30 | 44.28102 | 10.21487 | 35207 ft | 450 kts | 102° |
| 2026-04-30 18:31 | 44.25048 | 10.33718 | 35211 ft | 457 kts | 115° |
| 2026-04-30 18:32 | 44.19555 | 10.44735 | 35210 ft | 462 kts | 124° |
| 2026-04-30 18:33 | 44.13760 | 10.55231 | 35205 ft | 464 kts | 124° |
| 2026-04-30 18:33 | 44.10582 | 10.62847 | 35214 ft | 455 kts | 107° |
| 2026-04-30 18:33 | 44.09512 | 10.66999 | 35218 ft | 454 kts | 104° |
| 2026-04-30 18:34 | 44.06934 | 10.79650 | 35233 ft | 453 kts | 101° |
| 2026-04-30 18:35 | 44.05246 | 10.88125 | 35214 ft | 454 kts | 102° |
| 2026-04-30 18:35 | 44.03487 | 10.96538 | 35222 ft | 454 kts | 103° |
| 2026-04-30 18:36 | 43.99698 | 11.08679 | 35242 ft | 463 kts | 115° |
| 2026-04-30 18:37 | 43.94891 | 11.20304 | 35246 ft | 463 kts | 117° |
| 2026-04-30 18:37 | 43.91645 | 11.28085 | 35257 ft | 464 kts | 116° |
| 2026-04-30 18:38 | 43.88451 | 11.35831 | 35259 ft | 464 kts | 116° |
| 2026-04-30 18:38 | 43.85252 | 11.43653 | 35245 ft | 465 kts | 116° |
| 2026-04-30 18:39 | 43.82089 | 11.51406 | 35258 ft | 465 kts | 116° |
| 2026-04-30 18:39 | 43.78921 | 11.59307 | 35248 ft | 466 kts | 114° |
| 2026-04-30 18:40 | 43.76024 | 11.67284 | 35253 ft | 466 kts | 113° |
| 2026-04-30 18:40 | 43.73191 | 11.75349 | 35239 ft | 466 kts | 113° |
| 2026-04-30 18:41 | 43.70342 | 11.83393 | 35250 ft | 467 kts | 113° |
| 2026-04-30 18:41 | 43.67450 | 11.91459 | 35225 ft | 467 kts | 113° |
| 2026-04-30 18:42 | 43.64551 | 11.99475 | 35219 ft | 468 kts | 113° |
| 2026-04-30 18:42 | 43.60166 | 12.11523 | 35217 ft | 468 kts | 114° |
| 2026-04-30 18:45 | 43.43904 | 12.55722 | 35219 ft | 471 kts | 114° |
| 2026-04-30 18:46 | 43.40907 | 12.63790 | 35228 ft | 472 kts | 114° |
| 2026-04-30 18:46 | 43.37954 | 12.71718 | 35224 ft | 473 kts | 115° |
| 2026-04-30 18:47 | 43.34958 | 12.79740 | 35225 ft | 474 kts | 115° |
| 2026-04-30 18:47 | 43.31951 | 12.87769 | 35239 ft | 474 kts | 115° |
| 2026-04-30 18:48 | 43.28916 | 12.95849 | 35230 ft | 474 kts | 115° |
| 2026-04-30 18:48 | 43.25894 | 13.03867 | 35232 ft | 476 kts | 115° |
| 2026-04-30 18:49 | 43.22842 | 13.11948 | 35231 ft | 476 kts | 115° |
| 2026-04-30 18:49 | 43.19797 | 13.19981 | 35225 ft | 476 kts | 115° |
| 2026-04-30 18:50 | 43.16749 | 13.28001 | 35220 ft | 477 kts | 116° |
| 2026-04-30 18:50 | 43.13683 | 13.36044 | 35215 ft | 477 kts | 116° |
| 2026-04-30 18:51 | 43.10600 | 13.44111 | 35224 ft | 477 kts | 116° |
| 2026-04-30 18:51 | 43.07515 | 13.52159 | 35226 ft | 479 kts | 116° |
| 2026-04-30 18:52 | 43.04406 | 13.60247 | 35226 ft | 477 kts | 116° |
| 2026-04-30 18:52 | 43.01378 | 13.68108 | 35222 ft | 480 kts | 117° |
| 2026-04-30 18:53 | 42.98237 | 13.76238 | 35220 ft | 480 kts | 116° |
| 2026-04-30 18:53 | 42.95121 | 13.84276 | 35240 ft | 480 kts | 117° |
| 2026-04-30 18:54 | 42.92001 | 13.92300 | 35224 ft | 480 kts | 117° |
| 2026-04-30 18:54 | 42.88862 | 14.00352 | 35234 ft | 480 kts | 117° |
| 2026-04-30 18:55 | 42.85725 | 14.08382 | 35242 ft | 482 kts | 117° |
| 2026-04-30 18:55 | 42.80986 | 14.20463 | 35237 ft | 483 kts | 117° |
| 2026-04-30 18:56 | 42.76232 | 14.32529 | 35226 ft | 483 kts | 117° |
| 2026-04-30 18:57 | 42.71440 | 14.44639 | 35224 ft | 483 kts | 117° |
| 2026-04-30 18:57 | 42.68254 | 14.52660 | 35229 ft | 483 kts | 117° |
| 2026-04-30 18:58 | 42.63451 | 14.64716 | 35214 ft | 484 kts | 117° |
| 2026-04-30 18:59 | 42.58688 | 14.76623 | 35212 ft | 485 kts | 118° |
| 2026-04-30 19:00 | 42.52216 | 14.92722 | 35219 ft | 487 kts | 118° |
| 2026-04-30 19:01 | 42.45723 | 15.08783 | 35212 ft | 487 kts | 118° |
| 2026-04-30 19:02 | 42.40836 | 15.20818 | 35203 ft | 486 kts | 118° |
| 2026-04-30 19:03 | 42.34312 | 15.36801 | 35198 ft | 489 kts | 118° |
| 2026-04-30 19:04 | 42.27682 | 15.52748 | 35179 ft | 486 kts | 121° |
| 2026-04-30 19:04 | 42.24159 | 15.60553 | 35006 ft | 484 kts | 122° |
| 2026-04-30 19:05 | 42.20673 | 15.68147 | 34444 ft | 472 kts | 122° |
| 2026-04-30 19:05 | 42.17316 | 15.75469 | 33515 ft | 471 kts | 123° |
| 2026-04-30 19:06 | 42.13899 | 15.82944 | 32540 ft | 469 kts | 122° |
| 2026-04-30 19:06 | 42.12186 | 15.86697 | 32045 ft | 468 kts | 123° |
| 2026-04-30 19:06 | 42.08804 | 15.94103 | 31060 ft | 466 kts | 123° |
| 2026-04-30 19:07 | 42.05415 | 16.01516 | 30063 ft | 464 kts | 123° |
| 2026-04-30 19:07 | 42.03723 | 16.05211 | 29522 ft | 463 kts | 123° |
| 2026-04-30 19:08 | 42.00378 | 16.12504 | 28517 ft | 458 kts | 122° |
| 2026-04-30 19:08 | 41.97071 | 16.19701 | 27517 ft | 453 kts | 122° |
| 2026-04-30 19:08 | 41.95417 | 16.23290 | 27027 ft | 450 kts | 122° |
| 2026-04-30 19:09 | 41.92136 | 16.30401 | 26006 ft | 445 kts | 122° |
| 2026-04-30 19:09 | 41.90505 | 16.33882 | 25518 ft | 441 kts | 123° |
| 2026-04-30 19:09 | 41.88764 | 16.37246 | 25023 ft | 438 kts | 126° |
| 2026-04-30 19:10 | 41.85123 | 16.43663 | 24020 ft | 430 kts | 128° |
| 2026-04-30 19:10 | 41.81495 | 16.49885 | 23047 ft | 421 kts | 128° |
| 2026-04-30 19:11 | 41.79710 | 16.52960 | 22557 ft | 417 kts | 128° |
| 2026-04-30 19:11 | 41.76193 | 16.59055 | 21600 ft | 409 kts | 127° |
| 2026-04-30 19:11 | 41.74578 | 16.61868 | 21163 ft | 405 kts | 127° |
| 2026-04-30 19:12 | 41.72892 | 16.64812 | 20695 ft | 401 kts | 127° |
| 2026-04-30 19:12 | 41.71206 | 16.67760 | 20223 ft | 397 kts | 128° |
| 2026-04-30 19:12 | 41.69533 | 16.70683 | 19751 ft | 394 kts | 128° |
| 2026-04-30 19:13 | 41.66025 | 16.76199 | 18795 ft | 386 kts | 134° |
| 2026-04-30 19:13 | 41.62233 | 16.81193 | 17924 ft | 377 kts | 136° |
| 2026-04-30 19:13 | 41.60373 | 16.83585 | 17483 ft | 374 kts | 136° |
| 2026-04-30 19:14 | 41.58511 | 16.85997 | 17038 ft | 370 kts | 135° |
| 2026-04-30 19:14 | 41.56683 | 16.88380 | 16585 ft | 367 kts | 136° |
| 2026-04-30 19:14 | 41.54739 | 16.90556 | 16139 ft | 364 kts | 146° |
| 2026-04-30 19:14 | 41.52509 | 16.92017 | 15709 ft | 357 kts | 167° |
| 2026-04-30 19:15 | 41.50058 | 16.92191 | 15287 ft | 347 kts | 192° |
| 2026-04-30 19:15 | 41.45631 | 16.90129 | 14448 ft | 335 kts | 205° |
| 2026-04-30 19:15 | 41.43470 | 16.88958 | 14030 ft | 332 kts | 205° |
| 2026-04-30 19:16 | 41.41322 | 16.87828 | 13620 ft | 330 kts | 204° |
| 2026-04-30 19:16 | 41.39193 | 16.86738 | 13214 ft | 327 kts | 204° |
| 2026-04-30 19:16 | 41.34975 | 16.84629 | 12404 ft | 322 kts | 203° |
| 2026-04-30 19:17 | 41.32879 | 16.83591 | 11998 ft | 320 kts | 203° |
| 2026-04-30 19:17 | 41.28992 | 16.81023 | 11417 ft | 301 kts | 225° |
| 2026-04-30 19:17 | 41.27699 | 16.78909 | 11166 ft | 289 kts | 242° |
| 2026-04-30 19:18 | 41.26117 | 16.75064 | 10603 ft | 283 kts | 246° |
| 2026-04-30 19:18 | 41.24868 | 16.72005 | 9885 ft | 282 kts | 245° |
| 2026-04-30 19:18 | 41.23902 | 16.69763 | 9307 ft | 281 kts | 243° |
| 2026-04-30 19:19 | 41.22930 | 16.67559 | 8743 ft | 280 kts | 243° |
| 2026-04-30 19:19 | 41.21939 | 16.65330 | 8186 ft | 278 kts | 243° |
| 2026-04-30 19:19 | 41.20215 | 16.60906 | 7384 ft | 260 kts | 252° |
| 2026-04-30 19:20 | 41.19584 | 16.58702 | 7038 ft | 252 kts | 254° |
| 2026-04-30 19:20 | 41.19000 | 16.56565 | 6803 ft | 241 kts | 255° |
| 2026-04-30 19:20 | 41.17807 | 16.52262 | 6204 ft | 261 kts | 253° |
| 2026-04-30 19:21 | 41.17157 | 16.49980 | 5755 ft | 265 kts | 253° |
| 2026-04-30 19:21 | 41.15738 | 16.45544 | 5263 ft | 253 kts | 242° |
| 2026-04-30 19:22 | 41.12998 | 16.43373 | 4993 ft | 232 kts | 179° |
| 2026-04-30 19:22 | 41.08502 | 16.45255 | 4316 ft | 220 kts | 156° |
| 2026-04-30 19:23 | 41.06229 | 16.49250 | 3786 ft | 192 kts | 69° |
| 2026-04-30 19:24 | 41.07132 | 16.52494 | 3387 ft | 186 kts | 63° |
| 2026-04-30 19:24 | 41.07583 | 16.54095 | 3222 ft | 181 kts | 63° |
| 2026-04-30 19:24 | 41.08490 | 16.57256 | 2920 ft | 183 kts | 63° |
| 2026-04-30 19:25 | 41.09693 | 16.61475 | 2227 ft | 148 kts | 63° |
| 2026-04-30 19:26 | 41.10399 | 16.63933 | 1856 ft | 143 kts | 63° |
| 2026-04-30 19:26 | 41.11098 | 16.66389 | 1455 ft | 143 kts | 64° |
| 2026-04-30 19:26 | 41.11449 | 16.67615 | 1261 ft | 143 kts | 65° |
| 2026-04-30 19:27 | 41.12168 | 16.70109 | 874 ft | 146 kts | 64° |
| 2026-04-30 19:27 | 41.12875 | 16.72606 | 458 ft | 145 kts | 68° |
| 2026-04-30 19:28 | 41.13232 | 16.73871 | 263 ft | 143 kts | 68° |
| 2026-04-30 19:28 | 41.13811 | 16.75912 | 153 ft | 88 kts | 68° |
| 2026-04-30 19:29 | 41.13981 | 16.76684 | 137 ft | 22 kts | 113° |
| 2026-04-30 19:29 | 41.13936 | 16.76797 | 135 ft | 7 kts | 131° |
| 2026-04-30 19:30 | 41.13868 | 16.76778 | 136 ft | 12 kts | 244° |
| 2026-04-30 19:30 | 41.13802 | 16.76566 | 141 ft | 8 kts | 218° |
| 2026-04-30 19:31 | 41.13707 | 16.76603 | 141 ft | 6 kts | 155° |
| 2026-04-30 19:31 | 41.13678 | 16.76618 | 141 ft | 1 kts | 162° |
| 2026-04-30 19:31 | 41.13664 | 16.76619 | 142 ft | 1 kts | 189° |
| 2026-04-30 19:32 | 41.13658 | 16.76617 | 142 ft | 0 kts | 197° |
| 2026-04-30 19:32 | 41.13654 | 16.76615 | 142 ft | 0 kts | 198° |